sensor_id;sensor_type;location;lat;lon;timestamp;P1;durP1;ratioP1;P2;durP2;ratioP2
10333;SDS011;5212;47.892;16.406;2023-03-14T00:00:29;5.37;;;3.20;;
10333;SDS011;5212;47.892;16.406;2023-03-14T00:02:55;3.47;;;3.17;;
10333;SDS011;5212;47.892;16.406;2023-03-14T00:05:21;3.90;;;2.90;;
10333;SDS011;5212;47.892;16.406;2023-03-14T00:07:49;5.63;;;3.23;;
10333;SDS011;5212;47.892;16.406;2023-03-14T00:10:15;6.50;;;3.50;;
10333;SDS011;5212;47.892;16.406;2023-03-14T00:12:42;6.10;;;3.27;;
10333;SDS011;5212;47.892;16.406;2023-03-14T00:15:09;4.93;;;3.20;;
10333;SDS011;5212;47.892;16.406;2023-03-14T00:17:36;4.00;;;2.97;;
10333;SDS011;5212;47.892;16.406;2023-03-14T00:20:03;6.00;;;3.10;;
10333;SDS011;5212;47.892;16.406;2023-03-14T00:22:33;4.07;;;3.17;;
10333;SDS011;5212;47.892;16.406;2023-03-14T00:25:01;5.03;;;3.40;;
10333;SDS011;5212;47.892;16.406;2023-03-14T00:27:27;5.20;;;3.13;;
10333;SDS011;5212;47.892;16.406;2023-03-14T00:29:53;7.17;;;3.00;;
10333;SDS011;5212;47.892;16.406;2023-03-14T00:32:20;4.33;;;2.80;;
10333;SDS011;5212;47.892;16.406;2023-03-14T00:34:46;4.80;;;3.33;;
10333;SDS011;5212;47.892;16.406;2023-03-14T00:37:13;4.67;;;3.10;;
10333;SDS011;5212;47.892;16.406;2023-03-14T00:39:39;3.60;;;3.00;;
10333;SDS011;5212;47.892;16.406;2023-03-14T00:42:07;3.57;;;2.80;;
10333;SDS011;5212;47.892;16.406;2023-03-14T00:44:33;3.73;;;2.77;;
10333;SDS011;5212;47.892;16.406;2023-03-14T00:46:59;2.93;;;2.23;;
10333;SDS011;5212;47.892;16.406;2023-03-14T00:49:25;3.53;;;2.70;;
10333;SDS011;5212;47.892;16.406;2023-03-14T00:51:52;4.13;;;2.80;;
10333;SDS011;5212;47.892;16.406;2023-03-14T00:54:19;4.10;;;2.57;;
10333;SDS011;5212;47.892;16.406;2023-03-14T00:56:45;2.83;;;2.40;;
10333;SDS011;5212;47.892;16.406;2023-03-14T00:59:12;3.90;;;2.50;;
10333;SDS011;5212;47.892;16.406;2023-03-14T01:01:38;3.93;;;2.73;;
10333;SDS011;5212;47.892;16.406;2023-03-14T01:04:05;4.30;;;2.77;;
10333;SDS011;5212;47.892;16.406;2023-03-14T01:06:32;3.70;;;2.50;;
10333;SDS011;5212;47.892;16.406;2023-03-14T01:08:58;3.83;;;2.57;;
10333;SDS011;5212;47.892;16.406;2023-03-14T01:11:25;4.70;;;2.50;;
10333;SDS011;5212;47.892;16.406;2023-03-14T01:13:53;3.37;;;2.70;;
10333;SDS011;5212;47.892;16.406;2023-03-14T01:16:22;4.67;;;2.90;;
10333;SDS011;5212;47.892;16.406;2023-03-14T01:18:50;4.23;;;2.70;;
10333;SDS011;5212;47.892;16.406;2023-03-14T01:21:17;4.20;;;2.50;;
10333;SDS011;5212;47.892;16.406;2023-03-14T01:23:45;2.40;;;2.13;;
10333;SDS011;5212;47.892;16.406;2023-03-14T01:26:13;3.63;;;2.23;;
10333;SDS011;5212;47.892;16.406;2023-03-14T01:28:40;2.50;;;2.10;;
10333;SDS011;5212;47.892;16.406;2023-03-14T01:31:07;3.97;;;2.40;;
10333;SDS011;5212;47.892;16.406;2023-03-14T01:33:35;2.40;;;2.17;;
10333;SDS011;5212;47.892;16.406;2023-03-14T01:36:02;3.77;;;2.40;;
10333;SDS011;5212;47.892;16.406;2023-03-14T01:38:29;2.60;;;2.10;;
10333;SDS011;5212;47.892;16.406;2023-03-14T01:40:55;3.40;;;2.33;;
10333;SDS011;5212;47.892;16.406;2023-03-14T01:43:21;4.07;;;2.13;;
10333;SDS011;5212;47.892;16.406;2023-03-14T01:46:06;3.13;;;1.90;;
10333;SDS011;5212;47.892;16.406;2023-03-14T01:48:43;2.80;;;1.87;;
10333;SDS011;5212;47.892;16.406;2023-03-14T01:51:14;2.53;;;2.00;;
10333;SDS011;5212;47.892;16.406;2023-03-14T01:53:43;5.53;;;2.10;;
10333;SDS011;5212;47.892;16.406;2023-03-14T01:56:11;3.63;;;2.03;;
10333;SDS011;5212;47.892;16.406;2023-03-14T01:58:39;3.27;;;2.00;;
10333;SDS011;5212;47.892;16.406;2023-03-14T02:01:07;3.23;;;2.00;;
10333;SDS011;5212;47.892;16.406;2023-03-14T02:03:36;4.20;;;1.90;;
10333;SDS011;5212;47.892;16.406;2023-03-14T02:06:10;3.83;;;2.20;;
10333;SDS011;5212;47.892;16.406;2023-03-14T02:08:37;4.57;;;2.10;;
10333;SDS011;5212;47.892;16.406;2023-03-14T02:11:05;2.93;;;1.93;;
10333;SDS011;5212;47.892;16.406;2023-03-14T02:13:33;2.47;;;1.80;;
10333;SDS011;5212;47.892;16.406;2023-03-14T02:16:00;4.33;;;1.80;;
10333;SDS011;5212;47.892;16.406;2023-03-14T02:18:26;3.90;;;2.10;;
10333;SDS011;5212;47.892;16.406;2023-03-14T02:20:53;7.67;;;5.03;;
10333;SDS011;5212;47.892;16.406;2023-03-14T02:23:24;8.37;;;5.73;;
10333;SDS011;5212;47.892;16.406;2023-03-14T02:25:56;7.73;;;5.80;;
10333;SDS011;5212;47.892;16.406;2023-03-14T02:28:25;6.07;;;4.70;;
10333;SDS011;5212;47.892;16.406;2023-03-14T02:30:51;6.63;;;5.27;;
10333;SDS011;5212;47.892;16.406;2023-03-14T02:33:19;6.17;;;4.80;;
10333;SDS011;5212;47.892;16.406;2023-03-14T02:35:47;6.53;;;4.70;;
10333;SDS011;5212;47.892;16.406;2023-03-14T02:38:15;8.13;;;5.27;;
10333;SDS011;5212;47.892;16.406;2023-03-14T02:40:43;6.67;;;5.10;;
10333;SDS011;5212;47.892;16.406;2023-03-14T02:43:10;6.23;;;5.40;;
10333;SDS011;5212;47.892;16.406;2023-03-14T02:45:41;6.67;;;5.23;;
10333;SDS011;5212;47.892;16.406;2023-03-14T02:48:11;9.20;;;6.83;;
10333;SDS011;5212;47.892;16.406;2023-03-14T02:50:41;7.00;;;5.20;;
10333;SDS011;5212;47.892;16.406;2023-03-14T02:53:08;9.03;;;6.40;;
10333;SDS011;5212;47.892;16.406;2023-03-14T02:55:34;6.40;;;5.40;;
10333;SDS011;5212;47.892;16.406;2023-03-14T02:58:00;10.33;;;6.93;;
10333;SDS011;5212;47.892;16.406;2023-03-14T03:00:26;9.23;;;6.23;;
10333;SDS011;5212;47.892;16.406;2023-03-14T03:02:54;8.77;;;6.50;;
10333;SDS011;5212;47.892;16.406;2023-03-14T03:05:20;8.37;;;6.83;;
10333;SDS011;5212;47.892;16.406;2023-03-14T03:07:46;9.37;;;6.60;;
10333;SDS011;5212;47.892;16.406;2023-03-14T03:10:13;8.50;;;5.93;;
10333;SDS011;5212;47.892;16.406;2023-03-14T03:12:39;8.70;;;6.70;;
10333;SDS011;5212;47.892;16.406;2023-03-14T03:15:06;8.93;;;6.57;;
10333;SDS011;5212;47.892;16.406;2023-03-14T03:17:33;7.37;;;5.27;;
10333;SDS011;5212;47.892;16.406;2023-03-14T03:20:01;8.03;;;6.20;;
10333;SDS011;5212;47.892;16.406;2023-03-14T03:22:30;8.07;;;5.77;;
10333;SDS011;5212;47.892;16.406;2023-03-14T03:24:56;7.17;;;5.27;;
10333;SDS011;5212;47.892;16.406;2023-03-14T03:27:23;7.07;;;5.27;;
10333;SDS011;5212;47.892;16.406;2023-03-14T03:29:49;6.83;;;4.77;;
10333;SDS011;5212;47.892;16.406;2023-03-14T03:32:16;6.03;;;4.50;;
10333;SDS011;5212;47.892;16.406;2023-03-14T03:34:43;4.93;;;4.17;;
10333;SDS011;5212;47.892;16.406;2023-03-14T03:37:11;6.57;;;4.63;;
10333;SDS011;5212;47.892;16.406;2023-03-14T03:39:37;5.63;;;3.97;;
10333;SDS011;5212;47.892;16.406;2023-03-14T03:42:04;8.23;;;4.70;;
10333;SDS011;5212;47.892;16.406;2023-03-14T03:44:30;6.37;;;4.33;;
10333;SDS011;5212;47.892;16.406;2023-03-14T03:46:57;5.53;;;3.93;;
10333;SDS011;5212;47.892;16.406;2023-03-14T03:49:27;5.20;;;4.30;;
10333;SDS011;5212;47.892;16.406;2023-03-14T03:51:54;7.97;;;6.00;;
10333;SDS011;5212;47.892;16.406;2023-03-14T03:54:22;8.07;;;5.37;;
10333;SDS011;5212;47.892;16.406;2023-03-14T03:56:49;8.17;;;5.63;;
10333;SDS011;5212;47.892;16.406;2023-03-14T03:59:15;12.50;;;8.50;;
10333;SDS011;5212;47.892;16.406;2023-03-14T04:01:42;20.27;;;13.83;;
10333;SDS011;5212;47.892;16.406;2023-03-14T04:04:08;28.63;;;20.53;;
10333;SDS011;5212;47.892;16.406;2023-03-14T04:06:37;30.53;;;21.83;;
10333;SDS011;5212;47.892;16.406;2023-03-14T04:09:04;15.63;;;10.90;;
10333;SDS011;5212;47.892;16.406;2023-03-14T04:11:31;10.83;;;8.50;;
10333;SDS011;5212;47.892;16.406;2023-03-14T04:13:57;11.20;;;7.90;;
10333;SDS011;5212;47.892;16.406;2023-03-14T04:16:24;8.20;;;6.37;;
10333;SDS011;5212;47.892;16.406;2023-03-14T04:18:51;7.00;;;5.73;;
10333;SDS011;5212;47.892;16.406;2023-03-14T04:21:17;8.97;;;5.97;;
10333;SDS011;5212;47.892;16.406;2023-03-14T04:23:44;6.83;;;5.23;;
10333;SDS011;5212;47.892;16.406;2023-03-14T04:26:10;5.50;;;4.87;;
10333;SDS011;5212;47.892;16.406;2023-03-14T04:28:37;7.17;;;4.53;;
10333;SDS011;5212;47.892;16.406;2023-03-14T04:31:07;7.13;;;4.50;;
10333;SDS011;5212;47.892;16.406;2023-03-14T04:33:34;12.73;;;5.47;;
10333;SDS011;5212;47.892;16.406;2023-03-14T04:36:02;7.37;;;5.33;;
10333;SDS011;5212;47.892;16.406;2023-03-14T04:38:29;6.67;;;4.70;;
10333;SDS011;5212;47.892;16.406;2023-03-14T04:40:56;7.57;;;5.30;;
10333;SDS011;5212;47.892;16.406;2023-03-14T04:43:22;5.97;;;4.53;;
10333;SDS011;5212;47.892;16.406;2023-03-14T04:45:51;10.57;;;6.10;;
10333;SDS011;5212;47.892;16.406;2023-03-14T04:48:17;6.87;;;4.67;;
10333;SDS011;5212;47.892;16.406;2023-03-14T04:50:45;7.63;;;5.50;;
10333;SDS011;5212;47.892;16.406;2023-03-14T04:53:12;7.53;;;4.97;;
10333;SDS011;5212;47.892;16.406;2023-03-14T04:55:38;9.37;;;6.13;;
10333;SDS011;5212;47.892;16.406;2023-03-14T04:58:05;7.70;;;5.30;;
10333;SDS011;5212;47.892;16.406;2023-03-14T05:00:32;7.90;;;5.70;;
10333;SDS011;5212;47.892;16.406;2023-03-14T05:02:59;7.83;;;5.10;;
10333;SDS011;5212;47.892;16.406;2023-03-14T05:05:25;8.17;;;5.27;;
10333;SDS011;5212;47.892;16.406;2023-03-14T05:07:52;7.33;;;5.20;;
10333;SDS011;5212;47.892;16.406;2023-03-14T05:10:20;7.70;;;5.47;;
10333;SDS011;5212;47.892;16.406;2023-03-14T05:12:46;7.63;;;4.53;;
10333;SDS011;5212;47.892;16.406;2023-03-14T05:15:13;7.13;;;4.10;;
10333;SDS011;5212;47.892;16.406;2023-03-14T05:17:39;6.57;;;4.73;;
10333;SDS011;5212;47.892;16.406;2023-03-14T05:20:08;6.10;;;4.40;;
10333;SDS011;5212;47.892;16.406;2023-03-14T05:22:37;6.37;;;3.87;;
10333;SDS011;5212;47.892;16.406;2023-03-14T05:25:05;7.70;;;4.70;;
10333;SDS011;5212;47.892;16.406;2023-03-14T05:27:33;7.17;;;4.63;;
10333;SDS011;5212;47.892;16.406;2023-03-14T05:30:00;5.37;;;4.23;;
10333;SDS011;5212;47.892;16.406;2023-03-14T05:32:26;5.80;;;4.43;;
10333;SDS011;5212;47.892;16.406;2023-03-14T05:34:52;6.67;;;4.57;;
10333;SDS011;5212;47.892;16.406;2023-03-14T05:37:23;6.27;;;4.60;;
10333;SDS011;5212;47.892;16.406;2023-03-14T05:39:50;5.97;;;4.40;;
10333;SDS011;5212;47.892;16.406;2023-03-14T05:42:17;7.03;;;4.80;;
10333;SDS011;5212;47.892;16.406;2023-03-14T05:44:44;7.80;;;5.30;;
10333;SDS011;5212;47.892;16.406;2023-03-14T05:47:10;9.97;;;5.77;;
10333;SDS011;5212;47.892;16.406;2023-03-14T05:49:37;9.53;;;7.10;;
10333;SDS011;5212;47.892;16.406;2023-03-14T05:52:03;10.70;;;7.10;;
10333;SDS011;5212;47.892;16.406;2023-03-14T05:54:31;12.03;;;7.77;;
10333;SDS011;5212;47.892;16.406;2023-03-14T05:56:57;12.50;;;8.03;;
10333;SDS011;5212;47.892;16.406;2023-03-14T05:59:23;8.53;;;6.00;;
10333;SDS011;5212;47.892;16.406;2023-03-14T06:01:50;8.10;;;5.57;;
10333;SDS011;5212;47.892;16.406;2023-03-14T06:04:16;10.37;;;6.10;;
10333;SDS011;5212;47.892;16.406;2023-03-14T06:06:43;9.67;;;6.20;;
10333;SDS011;5212;47.892;16.406;2023-03-14T06:09:09;8.13;;;6.27;;
10333;SDS011;5212;47.892;16.406;2023-03-14T06:11:36;9.40;;;6.47;;
10333;SDS011;5212;47.892;16.406;2023-03-14T06:14:03;8.23;;;6.30;;
10333;SDS011;5212;47.892;16.406;2023-03-14T06:16:29;7.10;;;5.40;;
10333;SDS011;5212;47.892;16.406;2023-03-14T06:18:57;9.20;;;6.10;;
10333;SDS011;5212;47.892;16.406;2023-03-14T06:21:23;9.87;;;6.63;;
10333;SDS011;5212;47.892;16.406;2023-03-14T06:23:50;7.40;;;6.10;;
10333;SDS011;5212;47.892;16.406;2023-03-14T06:26:16;7.93;;;6.23;;
10333;SDS011;5212;47.892;16.406;2023-03-14T06:28:43;8.87;;;6.30;;
10333;SDS011;5212;47.892;16.406;2023-03-14T06:31:11;8.10;;;6.30;;
10333;SDS011;5212;47.892;16.406;2023-03-14T06:33:37;10.30;;;7.10;;
10333;SDS011;5212;47.892;16.406;2023-03-14T06:36:04;10.23;;;7.80;;
10333;SDS011;5212;47.892;16.406;2023-03-14T06:38:31;9.30;;;7.90;;
10333;SDS011;5212;47.892;16.406;2023-03-14T06:41:02;8.53;;;7.10;;
10333;SDS011;5212;47.892;16.406;2023-03-14T06:43:29;12.83;;;10.07;;
10333;SDS011;5212;47.892;16.406;2023-03-14T06:45:56;11.70;;;7.30;;
10333;SDS011;5212;47.892;16.406;2023-03-14T06:48:23;10.50;;;7.23;;
10333;SDS011;5212;47.892;16.406;2023-03-14T06:50:49;11.40;;;7.37;;
10333;SDS011;5212;47.892;16.406;2023-03-14T06:53:15;11.33;;;7.30;;
10333;SDS011;5212;47.892;16.406;2023-03-14T06:55:42;8.80;;;5.57;;
10333;SDS011;5212;47.892;16.406;2023-03-14T06:58:09;14.43;;;9.37;;
10333;SDS011;5212;47.892;16.406;2023-03-14T07:00:35;9.50;;;7.13;;
10333;SDS011;5212;47.892;16.406;2023-03-14T07:03:02;11.60;;;7.77;;
10333;SDS011;5212;47.892;16.406;2023-03-14T07:05:29;10.63;;;7.27;;
10333;SDS011;5212;47.892;16.406;2023-03-14T07:07:55;7.40;;;5.93;;
10333;SDS011;5212;47.892;16.406;2023-03-14T07:10:21;8.43;;;6.03;;
10333;SDS011;5212;47.892;16.406;2023-03-14T07:12:48;10.93;;;5.93;;
10333;SDS011;5212;47.892;16.406;2023-03-14T07:15:14;8.27;;;6.27;;
10333;SDS011;5212;47.892;16.406;2023-03-14T07:17:40;8.10;;;5.30;;
10333;SDS011;5212;47.892;16.406;2023-03-14T07:20:10;7.63;;;5.70;;
10333;SDS011;5212;47.892;16.406;2023-03-14T07:22:36;7.80;;;5.27;;
10333;SDS011;5212;47.892;16.406;2023-03-14T07:25:03;8.97;;;5.77;;
10333;SDS011;5212;47.892;16.406;2023-03-14T07:27:30;7.20;;;5.53;;
10333;SDS011;5212;47.892;16.406;2023-03-14T07:29:57;6.63;;;5.27;;
10333;SDS011;5212;47.892;16.406;2023-03-14T07:32:23;9.13;;;5.90;;
10333;SDS011;5212;47.892;16.406;2023-03-14T07:34:49;8.60;;;5.80;;
10333;SDS011;5212;47.892;16.406;2023-03-14T07:37:17;6.47;;;5.30;;
10333;SDS011;5212;47.892;16.406;2023-03-14T07:39:43;7.20;;;5.60;;
10333;SDS011;5212;47.892;16.406;2023-03-14T07:42:09;7.70;;;5.40;;
10333;SDS011;5212;47.892;16.406;2023-03-14T07:44:36;6.03;;;4.93;;
10333;SDS011;5212;47.892;16.406;2023-03-14T07:47:03;9.30;;;5.73;;
10333;SDS011;5212;47.892;16.406;2023-03-14T07:49:29;7.73;;;5.33;;
10333;SDS011;5212;47.892;16.406;2023-03-14T07:51:56;10.67;;;5.20;;
10333;SDS011;5212;47.892;16.406;2023-03-14T07:54:24;8.07;;;5.70;;
10333;SDS011;5212;47.892;16.406;2023-03-14T07:56:50;5.80;;;4.57;;
10333;SDS011;5212;47.892;16.406;2023-03-14T07:59:17;7.57;;;5.20;;
10333;SDS011;5212;47.892;16.406;2023-03-14T08:01:43;7.03;;;5.20;;
10333;SDS011;5212;47.892;16.406;2023-03-14T08:04:09;7.20;;;5.63;;
10333;SDS011;5212;47.892;16.406;2023-03-14T08:06:36;8.03;;;5.07;;
10333;SDS011;5212;47.892;16.406;2023-03-14T08:09:03;7.50;;;5.40;;
10333;SDS011;5212;47.892;16.406;2023-03-14T08:11:30;8.37;;;5.20;;
10333;SDS011;5212;47.892;16.406;2023-03-14T08:13:57;7.53;;;5.47;;
10333;SDS011;5212;47.892;16.406;2023-03-14T08:16:23;7.13;;;5.53;;
10333;SDS011;5212;47.892;16.406;2023-03-14T08:18:49;9.17;;;5.87;;
10333;SDS011;5212;47.892;16.406;2023-03-14T08:21:16;9.13;;;6.13;;
10333;SDS011;5212;47.892;16.406;2023-03-14T08:23:42;7.27;;;5.70;;
10333;SDS011;5212;47.892;16.406;2023-03-14T08:26:08;14.70;;;9.70;;
10333;SDS011;5212;47.892;16.406;2023-03-14T08:28:36;16.23;;;10.40;;
10333;SDS011;5212;47.892;16.406;2023-03-14T08:31:02;11.33;;;7.60;;
10333;SDS011;5212;47.892;16.406;2023-03-14T08:33:29;10.83;;;7.40;;
10333;SDS011;5212;47.892;16.406;2023-03-14T08:35:56;8.90;;;6.90;;
10333;SDS011;5212;47.892;16.406;2023-03-14T08:38:24;9.20;;;6.33;;
10333;SDS011;5212;47.892;16.406;2023-03-14T08:40:54;7.57;;;5.80;;
10333;SDS011;5212;47.892;16.406;2023-03-14T08:43:21;7.07;;;5.00;;
10333;SDS011;5212;47.892;16.406;2023-03-14T08:45:48;8.17;;;5.70;;
10333;SDS011;5212;47.892;16.406;2023-03-14T08:48:15;6.93;;;5.07;;
10333;SDS011;5212;47.892;16.406;2023-03-14T08:50:41;6.53;;;5.43;;
10333;SDS011;5212;47.892;16.406;2023-03-14T08:53:08;9.03;;;5.50;;
10333;SDS011;5212;47.892;16.406;2023-03-14T08:55:35;9.17;;;5.67;;
10333;SDS011;5212;47.892;16.406;2023-03-14T08:58:01;6.90;;;5.23;;
10333;SDS011;5212;47.892;16.406;2023-03-14T09:00:28;6.90;;;5.73;;
10333;SDS011;5212;47.892;16.406;2023-03-14T09:02:55;7.93;;;5.17;;
10333;SDS011;5212;47.892;16.406;2023-03-14T09:05:21;6.73;;;5.43;;
10333;SDS011;5212;47.892;16.406;2023-03-14T09:07:48;6.93;;;5.20;;
10333;SDS011;5212;47.892;16.406;2023-03-14T09:10:14;9.63;;;5.83;;
10333;SDS011;5212;47.892;16.406;2023-03-14T09:12:41;8.00;;;6.13;;
10333;SDS011;5212;47.892;16.406;2023-03-14T09:15:07;9.53;;;6.77;;
10333;SDS011;5212;47.892;16.406;2023-03-14T09:17:35;8.53;;;7.00;;
10333;SDS011;5212;47.892;16.406;2023-03-14T09:20:03;11.13;;;6.20;;
10333;SDS011;5212;47.892;16.406;2023-03-14T09:22:32;7.13;;;5.70;;
10333;SDS011;5212;47.892;16.406;2023-03-14T09:25:00;8.73;;;5.80;;
10333;SDS011;5212;47.892;16.406;2023-03-14T09:27:27;7.50;;;5.40;;
10333;SDS011;5212;47.892;16.406;2023-03-14T09:29:53;6.60;;;4.10;;
10333;SDS011;5212;47.892;16.406;2023-03-14T09:32:20;5.63;;;4.37;;
10333;SDS011;5212;47.892;16.406;2023-03-14T09:34:46;4.93;;;3.20;;
10333;SDS011;5212;47.892;16.406;2023-03-14T09:37:14;3.97;;;2.90;;
10333;SDS011;5212;47.892;16.406;2023-03-14T09:39:41;3.17;;;2.50;;
10333;SDS011;5212;47.892;16.406;2023-03-14T09:42:08;4.10;;;2.60;;
10333;SDS011;5212;47.892;16.406;2023-03-14T09:44:42;3.80;;;2.80;;
10333;SDS011;5212;47.892;16.406;2023-03-14T09:47:13;6.50;;;4.40;;
10333;SDS011;5212;47.892;16.406;2023-03-14T09:49:41;9.63;;;5.83;;
10333;SDS011;5212;47.892;16.406;2023-03-14T09:52:10;10.90;;;7.27;;
10333;SDS011;5212;47.892;16.406;2023-03-14T09:54:40;8.07;;;5.90;;
10333;SDS011;5212;47.892;16.406;2023-03-14T09:57:11;5.63;;;4.03;;
10333;SDS011;5212;47.892;16.406;2023-03-14T09:59:39;5.53;;;3.43;;
10333;SDS011;5212;47.892;16.406;2023-03-14T10:02:14;4.87;;;4.07;;
10333;SDS011;5212;47.892;16.406;2023-03-14T10:04:43;3.83;;;3.20;;
10333;SDS011;5212;47.892;16.406;2023-03-14T10:07:11;3.90;;;3.00;;
10333;SDS011;5212;47.892;16.406;2023-03-14T10:09:42;2.57;;;2.30;;
10333;SDS011;5212;47.892;16.406;2023-03-14T10:12:09;3.23;;;2.53;;
10333;SDS011;5212;47.892;16.406;2023-03-14T10:14:38;2.20;;;2.00;;
10333;SDS011;5212;47.892;16.406;2023-03-14T10:17:12;2.77;;;2.20;;
10333;SDS011;5212;47.892;16.406;2023-03-14T10:19:43;3.43;;;2.50;;
10333;SDS011;5212;47.892;16.406;2023-03-14T10:22:17;4.97;;;3.07;;
10333;SDS011;5212;47.892;16.406;2023-03-14T10:24:46;5.43;;;2.90;;
10333;SDS011;5212;47.892;16.406;2023-03-14T10:27:17;3.73;;;2.50;;
10333;SDS011;5212;47.892;16.406;2023-03-14T10:29:51;3.30;;;2.40;;
10333;SDS011;5212;47.892;16.406;2023-03-14T10:32:19;5.67;;;3.33;;
10333;SDS011;5212;47.892;16.406;2023-03-14T10:34:46;3.40;;;2.80;;
10333;SDS011;5212;47.892;16.406;2023-03-14T10:37:30;4.53;;;2.80;;
10333;SDS011;5212;47.892;16.406;2023-03-14T10:39:59;10.70;;;3.60;;
10333;SDS011;5212;47.892;16.406;2023-03-14T10:42:30;4.47;;;3.20;;
10333;SDS011;5212;47.892;16.406;2023-03-14T10:45:00;4.50;;;3.80;;
10333;SDS011;5212;47.892;16.406;2023-03-14T10:47:27;6.20;;;4.07;;
10333;SDS011;5212;47.892;16.406;2023-03-14T10:49:54;8.00;;;4.10;;
10333;SDS011;5212;47.892;16.406;2023-03-14T10:52:21;8.47;;;4.80;;
10333;SDS011;5212;47.892;16.406;2023-03-14T10:54:53;8.00;;;4.73;;
10333;SDS011;5212;47.892;16.406;2023-03-14T10:57:21;11.00;;;4.80;;
10333;SDS011;5212;47.892;16.406;2023-03-14T10:59:48;5.93;;;4.17;;
10333;SDS011;5212;47.892;16.406;2023-03-14T11:02:21;10.80;;;5.00;;
10333;SDS011;5212;47.892;16.406;2023-03-14T11:05:01;7.63;;;4.97;;
10333;SDS011;5212;47.892;16.406;2023-03-14T11:07:35;7.57;;;4.67;;
10333;SDS011;5212;47.892;16.406;2023-03-14T11:10:07;5.53;;;4.03;;
10333;SDS011;5212;47.892;16.406;2023-03-14T11:12:43;6.93;;;4.07;;
10333;SDS011;5212;47.892;16.406;2023-03-14T11:15:19;7.27;;;4.20;;
10333;SDS011;5212;47.892;16.406;2023-03-14T11:17:50;9.77;;;4.60;;
10333;SDS011;5212;47.892;16.406;2023-03-14T11:20:26;9.20;;;4.60;;
10333;SDS011;5212;47.892;16.406;2023-03-14T11:22:59;8.07;;;4.50;;
10333;SDS011;5212;47.892;16.406;2023-03-14T11:25:29;8.00;;;4.33;;
10333;SDS011;5212;47.892;16.406;2023-03-14T11:28:01;8.23;;;4.30;;
10333;SDS011;5212;47.892;16.406;2023-03-14T11:30:35;7.03;;;3.43;;
10333;SDS011;5212;47.892;16.406;2023-03-14T11:33:07;6.70;;;3.37;;
10333;SDS011;5212;47.892;16.406;2023-03-14T11:35:38;6.57;;;3.83;;
10333;SDS011;5212;47.892;16.406;2023-03-14T11:38:18;2.57;;;1.77;;
10333;SDS011;5212;47.892;16.406;2023-03-14T11:40:50;2.70;;;1.47;;
10333;SDS011;5212;47.892;16.406;2023-03-14T11:43:20;2.53;;;1.10;;
10333;SDS011;5212;47.892;16.406;2023-03-14T11:45:48;1.73;;;1.50;;
10333;SDS011;5212;47.892;16.406;2023-03-14T11:48:17;2.17;;;1.30;;
10333;SDS011;5212;47.892;16.406;2023-03-14T11:50:50;1.43;;;1.10;;
10333;SDS011;5212;47.892;16.406;2023-03-14T11:53:19;1.53;;;1.10;;
10333;SDS011;5212;47.892;16.406;2023-03-14T11:55:48;1.70;;;1.00;;
10333;SDS011;5212;47.892;16.406;2023-03-14T11:58:17;2.00;;;1.50;;
10333;SDS011;5212;47.892;16.406;2023-03-14T12:00:46;1.00;;;0.80;;
10333;SDS011;5212;47.892;16.406;2023-03-14T12:03:14;1.20;;;1.10;;
10333;SDS011;5212;47.892;16.406;2023-03-14T12:05:46;1.33;;;0.90;;
10333;SDS011;5212;47.892;16.406;2023-03-14T12:08:21;1.57;;;1.10;;
10333;SDS011;5212;47.892;16.406;2023-03-14T12:10:59;1.50;;;1.20;;
10333;SDS011;5212;47.892;16.406;2023-03-14T12:13:29;1.70;;;1.10;;
10333;SDS011;5212;47.892;16.406;2023-03-14T12:15:59;1.20;;;0.83;;
10333;SDS011;5212;47.892;16.406;2023-03-14T12:18:26;1.00;;;0.80;;
10333;SDS011;5212;47.892;16.406;2023-03-14T12:20:54;0.80;;;0.70;;
10333;SDS011;5212;47.892;16.406;2023-03-14T12:23:22;0.60;;;0.60;;
10333;SDS011;5212;47.892;16.406;2023-03-14T12:25:56;0.90;;;0.70;;
10333;SDS011;5212;47.892;16.406;2023-03-14T12:28:33;0.70;;;0.60;;
10333;SDS011;5212;47.892;16.406;2023-03-14T12:34:01;1.00;;;0.80;;
10333;SDS011;5212;47.892;16.406;2023-03-14T12:39:24;1.00;;;0.80;;
10333;SDS011;5212;47.892;16.406;2023-03-14T12:42:01;0.60;;;0.60;;
10333;SDS011;5212;47.892;16.406;2023-03-14T12:44:40;1.03;;;0.60;;
10333;SDS011;5212;47.892;16.406;2023-03-14T12:50:14;1.00;;;0.80;;
10333;SDS011;5212;47.892;16.406;2023-03-14T12:52:46;0.87;;;0.70;;
10333;SDS011;5212;47.892;16.406;2023-03-14T12:55:21;1.17;;;0.77;;
10333;SDS011;5212;47.892;16.406;2023-03-14T12:57:50;0.70;;;0.70;;
10333;SDS011;5212;47.892;16.406;2023-03-14T13:00:23;1.17;;;0.80;;
10333;SDS011;5212;47.892;16.406;2023-03-14T13:02:59;0.80;;;0.77;;
10333;SDS011;5212;47.892;16.406;2023-03-14T13:05:26;0.90;;;0.80;;
10333;SDS011;5212;47.892;16.406;2023-03-14T13:08:03;0.90;;;0.60;;
10333;SDS011;5212;47.892;16.406;2023-03-14T13:10:42;0.50;;;0.50;;
10333;SDS011;5212;47.892;16.406;2023-03-14T13:13:20;0.70;;;0.60;;
10333;SDS011;5212;47.892;16.406;2023-03-14T13:15:49;0.60;;;0.60;;
10333;SDS011;5212;47.892;16.406;2023-03-14T13:18:27;1.27;;;0.60;;
10333;SDS011;5212;47.892;16.406;2023-03-14T13:21:14;0.80;;;0.60;;
10333;SDS011;5212;47.892;16.406;2023-03-14T13:32:13;0.70;;;0.50;;
10333;SDS011;5212;47.892;16.406;2023-03-14T13:35:25;0.70;;;0.60;;
10333;SDS011;5212;47.892;16.406;2023-03-14T13:41:24;1.20;;;0.80;;
10333;SDS011;5212;47.892;16.406;2023-03-14T13:44:13;1.20;;;0.80;;
10333;SDS011;5212;47.892;16.406;2023-03-14T13:46:54;0.87;;;0.70;;
10333;SDS011;5212;47.892;16.406;2023-03-14T13:49:59;0.93;;;0.80;;
10333;SDS011;5212;47.892;16.406;2023-03-14T13:54:11;1.23;;;0.80;;
10333;SDS011;5212;47.892;16.406;2023-03-14T13:56:29;1.13;;;0.70;;
10333;SDS011;5212;47.892;16.406;2023-03-14T14:05:54;1.17;;;0.90;;
10333;SDS011;5212;47.892;16.406;2023-03-14T14:13:15;1.63;;;1.10;;
10333;SDS011;5212;47.892;16.406;2023-03-14T14:15:51;1.20;;;0.70;;
10333;SDS011;5212;47.892;16.406;2023-03-14T14:19:03;1.20;;;0.53;;
10333;SDS011;5212;47.892;16.406;2023-03-14T14:22:12;0.83;;;0.60;;
10333;SDS011;5212;47.892;16.406;2023-03-14T14:24:59;0.80;;;0.70;;
10333;SDS011;5212;47.892;16.406;2023-03-14T14:28:41;0.97;;;0.60;;
10333;SDS011;5212;47.892;16.406;2023-03-14T14:31:47;0.70;;;0.60;;
10333;SDS011;5212;47.892;16.406;2023-03-14T14:41:22;0.70;;;0.70;;
10333;SDS011;5212;47.892;16.406;2023-03-14T14:44:56;1.20;;;0.90;;
10333;SDS011;5212;47.892;16.406;2023-03-14T14:57:32;1.23;;;1.00;;
10333;SDS011;5212;47.892;16.406;2023-03-14T15:03:59;1.77;;;0.93;;
10333;SDS011;5212;47.892;16.406;2023-03-14T15:20:12;1.43;;;0.93;;
10333;SDS011;5212;47.892;16.406;2023-03-14T15:23:24;1.20;;;0.60;;
10333;SDS011;5212;47.892;16.406;2023-03-14T15:28:55;1.47;;;1.10;;
10333;SDS011;5212;47.892;16.406;2023-03-14T15:29:59;38.20;;;27.70;;
10333;SDS011;5212;47.892;16.406;2023-03-14T15:32:26;54.77;;;39.80;;
10333;SDS011;5212;47.892;16.406;2023-03-14T15:34:54;36.50;;;26.93;;
10333;SDS011;5212;47.892;16.406;2023-03-14T15:37:20;21.27;;;15.10;;
10333;SDS011;5212;47.892;16.406;2023-03-14T15:39:47;18.00;;;13.90;;
10333;SDS011;5212;47.892;16.406;2023-03-14T15:42:13;13.03;;;10.73;;
10333;SDS011;5212;47.892;16.406;2023-03-14T15:44:39;10.60;;;8.30;;
10333;SDS011;5212;47.892;16.406;2023-03-14T15:47:08;8.30;;;5.87;;
10333;SDS011;5212;47.892;16.406;2023-03-14T15:49:34;6.40;;;3.80;;
10333;SDS011;5212;47.892;16.406;2023-03-14T15:52:01;3.90;;;2.67;;
10333;SDS011;5212;47.892;16.406;2023-03-14T15:54:27;3.30;;;2.10;;
10333;SDS011;5212;47.892;16.406;2023-03-14T15:56:54;1.63;;;1.33;;
10333;SDS011;5212;47.892;16.406;2023-03-14T15:59:20;2.43;;;1.30;;
10333;SDS011;5212;47.892;16.406;2023-03-14T16:01:47;1.20;;;1.00;;
10333;SDS011;5212;47.892;16.406;2023-03-14T16:04:14;2.07;;;1.13;;
10333;SDS011;5212;47.892;16.406;2023-03-14T16:06:40;2.30;;;1.37;;
10333;SDS011;5212;47.892;16.406;2023-03-14T16:09:08;2.40;;;1.60;;